sensor_id;sensor_type;location;lat;lon;timestamp;temperature;humidity
46490;DHT22;32204;49.160;8.580;2022-07-23T00:00:32;26.10;99.90
46490;DHT22;32204;49.160;8.580;2022-07-23T00:02:58;26.10;99.90
46490;DHT22;32204;49.160;8.580;2022-07-23T00:05:24;26.10;99.90
46490;DHT22;32204;49.160;8.580;2022-07-23T00:07:50;26.10;99.90
46490;DHT22;32204;49.160;8.580;2022-07-23T00:10:15;26.00;99.90
46490;DHT22;32204;49.160;8.580;2022-07-23T00:12:41;26.10;99.90
46490;DHT22;32204;49.160;8.580;2022-07-23T00:15:08;26.00;99.90
46490;DHT22;32204;49.160;8.580;2022-07-23T00:17:34;25.90;99.90
46490;DHT22;32204;49.160;8.580;2022-07-23T00:19:59;25.90;1.00
46490;DHT22;32204;49.160;8.580;2022-07-23T00:22:25;25.80;1.00
46490;DHT22;32204;49.160;8.580;2022-07-23T00:24:53;25.80;1.00
46490;DHT22;32204;49.160;8.580;2022-07-23T00:27:18;25.70;1.00
46490;DHT22;32204;49.160;8.580;2022-07-23T00:29:44;25.60;1.00
46490;DHT22;32204;49.160;8.580;2022-07-23T00:32:09;25.50;1.00
46490;DHT22;32204;49.160;8.580;2022-07-23T00:34:35;25.00;5.10
46490;DHT22;32204;49.160;8.580;2022-07-23T00:37:01;24.90;89.30
46490;DHT22;32204;49.160;8.580;2022-07-23T00:39:26;24.80;99.90
46490;DHT22;32204;49.160;8.580;2022-07-23T00:41:52;24.70;99.90
46490;DHT22;32204;49.160;8.580;2022-07-23T00:47:05;24.60;99.90
46490;DHT22;32204;49.160;8.580;2022-07-23T00:49:32;24.60;99.90
46490;DHT22;32204;49.160;8.580;2022-07-23T00:51:58;24.40;99.90
46490;DHT22;32204;49.160;8.580;2022-07-23T00:54:27;24.40;99.90
46490;DHT22;32204;49.160;8.580;2022-07-23T00:56:53;24.40;99.90
46490;DHT22;32204;49.160;8.580;2022-07-23T00:59:19;24.50;99.90
46490;DHT22;32204;49.160;8.580;2022-07-23T01:01:45;24.60;99.90
46490;DHT22;32204;49.160;8.580;2022-07-23T01:04:13;24.60;99.90
46490;DHT22;32204;49.160;8.580;2022-07-23T01:06:40;24.70;99.90
46490;DHT22;32204;49.160;8.580;2022-07-23T01:09:07;24.70;99.90
46490;DHT22;32204;49.160;8.580;2022-07-23T01:11:34;24.60;99.90
46490;DHT22;32204;49.160;8.580;2022-07-23T01:14:11;24.60;99.90
46490;DHT22;32204;49.160;8.580;2022-07-23T01:16:37;24.50;99.90
46490;DHT22;32204;49.160;8.580;2022-07-23T01:19:03;24.30;99.90
46490;DHT22;32204;49.160;8.580;2022-07-23T01:21:35;24.20;99.90
46490;DHT22;32204;49.160;8.580;2022-07-23T01:24:01;24.20;99.90
46490;DHT22;32204;49.160;8.580;2022-07-23T01:26:30;24.10;99.90
46490;DHT22;32204;49.160;8.580;2022-07-23T01:28:56;24.10;99.90
46490;DHT22;32204;49.160;8.580;2022-07-23T01:31:22;24.10;67.50
46490;DHT22;32204;49.160;8.580;2022-07-23T01:33:48;24.00;67.20
46490;DHT22;32204;49.160;8.580;2022-07-23T01:36:14;24.00;48.30
46490;DHT22;32204;49.160;8.580;2022-07-23T01:38:40;24.10;25.40
46490;DHT22;32204;49.160;8.580;2022-07-23T01:41:05;24.20;7.10
46490;DHT22;32204;49.160;8.580;2022-07-23T01:43:31;24.10;1.00
46490;DHT22;32204;49.160;8.580;2022-07-23T01:45:56;24.10;1.00
46490;DHT22;32204;49.160;8.580;2022-07-23T01:48:22;24.10;1.00
46490;DHT22;32204;49.160;8.580;2022-07-23T01:50:48;24.20;1.00
46490;DHT22;32204;49.160;8.580;2022-07-23T01:53:14;24.30;1.00
46490;DHT22;32204;49.160;8.580;2022-07-23T01:55:41;24.40;1.00
46490;DHT22;32204;49.160;8.580;2022-07-23T01:58:06;24.20;1.00
46490;DHT22;32204;49.160;8.580;2022-07-23T02:00:32;24.30;1.00
46490;DHT22;32204;49.160;8.580;2022-07-23T02:02:58;24.30;1.00
46490;DHT22;32204;49.160;8.580;2022-07-23T02:05:27;24.30;1.00
46490;DHT22;32204;49.160;8.580;2022-07-23T02:07:57;24.20;1.00
46490;DHT22;32204;49.160;8.580;2022-07-23T02:10:23;24.10;1.00
46490;DHT22;32204;49.160;8.580;2022-07-23T02:12:49;24.00;1.00
46490;DHT22;32204;49.160;8.580;2022-07-23T02:15:15;23.90;1.00
46490;DHT22;32204;49.160;8.580;2022-07-23T02:17:40;23.80;1.00
46490;DHT22;32204;49.160;8.580;2022-07-23T02:20:07;23.80;1.00
46490;DHT22;32204;49.160;8.580;2022-07-23T02:22:34;23.70;1.00
46490;DHT22;32204;49.160;8.580;2022-07-23T02:24:59;23.70;2.90
46490;DHT22;32204;49.160;8.580;2022-07-23T02:27:25;23.70;5.30
46490;DHT22;32204;49.160;8.580;2022-07-23T02:29:51;23.70;1.00
46490;DHT22;32204;49.160;8.580;2022-07-23T02:32:16;23.60;1.00
46490;DHT22;32204;49.160;8.580;2022-07-23T02:34:42;23.50;1.00
46490;DHT22;32204;49.160;8.580;2022-07-23T02:37:08;23.40;1.00
46490;DHT22;32204;49.160;8.580;2022-07-23T02:39:34;23.50;4.90
46490;DHT22;32204;49.160;8.580;2022-07-23T02:42:01;23.70;23.00
46490;DHT22;32204;49.160;8.580;2022-07-23T02:44:26;23.60;22.10
46490;DHT22;32204;49.160;8.580;2022-07-23T02:46:52;23.50;92.60
46490;DHT22;32204;49.160;8.580;2022-07-23T02:49:17;23.50;99.90
46490;DHT22;32204;49.160;8.580;2022-07-23T02:51:43;23.50;99.90
46490;DHT22;32204;49.160;8.580;2022-07-23T02:54:09;23.60;89.10
46490;DHT22;32204;49.160;8.580;2022-07-23T02:56:34;23.60;74.20
46490;DHT22;32204;49.160;8.580;2022-07-23T02:59:00;23.70;34.90
46490;DHT22;32204;49.160;8.580;2022-07-23T03:01:26;23.80;42.00
46490;DHT22;32204;49.160;8.580;2022-07-23T03:03:51;23.80;16.00
46490;DHT22;32204;49.160;8.580;2022-07-23T03:06:17;23.70;1.00
46490;DHT22;32204;49.160;8.580;2022-07-23T03:08:43;23.40;22.20
46490;DHT22;32204;49.160;8.580;2022-07-23T03:11:08;23.30;89.40
46490;DHT22;32204;49.160;8.580;2022-07-23T03:13:37;23.20;99.90
46490;DHT22;32204;49.160;8.580;2022-07-23T03:16:03;23.30;99.90
46490;DHT22;32204;49.160;8.580;2022-07-23T03:18:29;23.40;99.90
46490;DHT22;32204;49.160;8.580;2022-07-23T03:20:54;23.40;99.90
46490;DHT22;32204;49.160;8.580;2022-07-23T03:23:20;23.40;99.90
46490;DHT22;32204;49.160;8.580;2022-07-23T03:25:46;23.50;95.20
46490;DHT22;32204;49.160;8.580;2022-07-23T03:28:15;23.30;95.30
46490;DHT22;32204;49.160;8.580;2022-07-23T03:30:42;23.10;99.90
46490;DHT22;32204;49.160;8.580;2022-07-23T03:33:08;23.20;99.90
46490;DHT22;32204;49.160;8.580;2022-07-23T03:35:34;23.10;99.90
46490;DHT22;32204;49.160;8.580;2022-07-23T03:37:59;23.10;99.90
46490;DHT22;32204;49.160;8.580;2022-07-23T03:40:25;23.20;99.90
46490;DHT22;32204;49.160;8.580;2022-07-23T03:42:50;23.30;99.90
46490;DHT22;32204;49.160;8.580;2022-07-23T03:45:16;23.30;99.90
46490;DHT22;32204;49.160;8.580;2022-07-23T03:47:42;23.30;49.90
46490;DHT22;32204;49.160;8.580;2022-07-23T03:50:10;23.40;27.80
46490;DHT22;32204;49.160;8.580;2022-07-23T03:52:36;23.40;2.40
46490;DHT22;32204;49.160;8.580;2022-07-23T03:55:03;23.50;1.60
46490;DHT22;32204;49.160;8.580;2022-07-23T03:57:29;23.60;1.00
46490;DHT22;32204;49.160;8.580;2022-07-23T03:59:55;23.80;1.00
46490;DHT22;32204;49.160;8.580;2022-07-23T04:02:20;23.60;1.00
46490;DHT22;32204;49.160;8.580;2022-07-23T04:04:46;23.30;3.20
46490;DHT22;32204;49.160;8.580;2022-07-23T04:07:12;23.10;87.90
46490;DHT22;32204;49.160;8.580;2022-07-23T04:09:38;23.10;99.90
46490;DHT22;32204;49.160;8.580;2022-07-23T04:12:06;23.00;99.90
46490;DHT22;32204;49.160;8.580;2022-07-23T04:14:32;22.90;99.90
46490;DHT22;32204;49.160;8.580;2022-07-23T04:16:58;22.70;99.90
46490;DHT22;32204;49.160;8.580;2022-07-23T04:19:24;22.80;99.90
46490;DHT22;32204;49.160;8.580;2022-07-23T04:21:50;23.00;99.90
46490;DHT22;32204;49.160;8.580;2022-07-23T04:24:16;23.10;85.20
46490;DHT22;32204;49.160;8.580;2022-07-23T04:26:42;23.30;68.20
46490;DHT22;32204;49.160;8.580;2022-07-23T04:29:07;23.50;21.90
46490;DHT22;32204;49.160;8.580;2022-07-23T04:31:33;23.60;8.90
46490;DHT22;32204;49.160;8.580;2022-07-23T04:33:59;23.70;8.20
46490;DHT22;32204;49.160;8.580;2022-07-23T04:36:24;23.70;1.00
46490;DHT22;32204;49.160;8.580;2022-07-23T04:38:50;23.60;43.90
46490;DHT22;32204;49.160;8.580;2022-07-23T04:41:16;23.50;39.20
46490;DHT22;32204;49.160;8.580;2022-07-23T04:43:41;23.30;72.00
46490;DHT22;32204;49.160;8.580;2022-07-23T04:46:07;23.50;93.90
46490;DHT22;32204;49.160;8.580;2022-07-23T04:48:32;23.70;74.80
46490;DHT22;32204;49.160;8.580;2022-07-23T04:50:58;23.90;34.90
46490;DHT22;32204;49.160;8.580;2022-07-23T04:53:24;23.90;16.10
46490;DHT22;32204;49.160;8.580;2022-07-23T04:55:50;23.90;23.10
46490;DHT22;32204;49.160;8.580;2022-07-23T04:58:15;23.90;13.90
46490;DHT22;32204;49.160;8.580;2022-07-23T05:00:41;23.80;24.20
46490;DHT22;32204;49.160;8.580;2022-07-23T05:03:07;23.70;30.20
46490;DHT22;32204;49.160;8.580;2022-07-23T05:05:33;23.60;39.10
46490;DHT22;32204;49.160;8.580;2022-07-23T05:07:58;23.50;90.10
46490;DHT22;32204;49.160;8.580;2022-07-23T05:10:24;23.50;99.90
46490;DHT22;32204;49.160;8.580;2022-07-23T05:12:49;23.40;99.90
46490;DHT22;32204;49.160;8.580;2022-07-23T05:15:15;23.20;67.20
46490;DHT22;32204;49.160;8.580;2022-07-23T05:17:41;22.80;99.90
46490;DHT22;32204;49.160;8.580;2022-07-23T05:20:07;22.50;99.90
46490;DHT22;32204;49.160;8.580;2022-07-23T05:22:32;22.70;99.90
46490;DHT22;32204;49.160;8.580;2022-07-23T05:24:58;22.60;99.90
46490;DHT22;32204;49.160;8.580;2022-07-23T05:27:24;22.60;99.90
46490;DHT22;32204;49.160;8.580;2022-07-23T05:29:50;22.70;99.90
46490;DHT22;32204;49.160;8.580;2022-07-23T05:32:15;22.80;99.90
46490;DHT22;32204;49.160;8.580;2022-07-23T05:34:41;23.00;99.90
46490;DHT22;32204;49.160;8.580;2022-07-23T05:37:07;23.00;99.90
46490;DHT22;32204;49.160;8.580;2022-07-23T05:39:32;23.00;99.90
46490;DHT22;32204;49.160;8.580;2022-07-23T05:41:58;22.90;99.90
46490;DHT22;32204;49.160;8.580;2022-07-23T05:44:24;22.80;99.90
46490;DHT22;32204;49.160;8.580;2022-07-23T05:46:50;22.80;99.90
46490;DHT22;32204;49.160;8.580;2022-07-23T05:49:15;22.80;99.90
46490;DHT22;32204;49.160;8.580;2022-07-23T05:51:41;22.60;99.90
46490;DHT22;32204;49.160;8.580;2022-07-23T05:54:06;22.70;99.90
46490;DHT22;32204;49.160;8.580;2022-07-23T05:56:32;23.10;99.90
46490;DHT22;32204;49.160;8.580;2022-07-23T05:58:57;23.20;99.90
46490;DHT22;32204;49.160;8.580;2022-07-23T06:01:23;23.40;99.90
46490;DHT22;32204;49.160;8.580;2022-07-23T06:03:49;23.90;99.90
46490;DHT22;32204;49.160;8.580;2022-07-23T06:06:15;25.00;99.90
46490;DHT22;32204;49.160;8.580;2022-07-23T06:08:40;25.80;22.00
46490;DHT22;32204;49.160;8.580;2022-07-23T06:11:06;25.50;1.00
46490;DHT22;32204;49.160;8.580;2022-07-23T06:13:32;24.90;3.40
46490;DHT22;32204;49.160;8.580;2022-07-23T06:15:57;24.40;99.90
46490;DHT22;32204;49.160;8.580;2022-07-23T06:18:23;24.10;99.90
46490;DHT22;32204;49.160;8.580;2022-07-23T06:20:48;24.10;99.90
46490;DHT22;32204;49.160;8.580;2022-07-23T06:23:14;24.30;99.90
46490;DHT22;32204;49.160;8.580;2022-07-23T06:25:40;24.10;99.90
46490;DHT22;32204;49.160;8.580;2022-07-23T06:28:05;24.10;99.90
46490;DHT22;32204;49.160;8.580;2022-07-23T06:30:31;24.00;99.90
46490;DHT22;32204;49.160;8.580;2022-07-23T06:32:57;23.70;99.90
46490;DHT22;32204;49.160;8.580;2022-07-23T06:35:22;23.40;99.90
46490;DHT22;32204;49.160;8.580;2022-07-23T06:37:48;23.60;99.90
46490;DHT22;32204;49.160;8.580;2022-07-23T06:40:14;24.10;99.90
46490;DHT22;32204;49.160;8.580;2022-07-23T06:42:39;26.50;99.90
46490;DHT22;32204;49.160;8.580;2022-07-23T06:45:08;27.20;1.00
46490;DHT22;32204;49.160;8.580;2022-07-23T06:47:34;26.50;1.00
46490;DHT22;32204;49.160;8.580;2022-07-23T06:49:59;26.10;1.00
46490;DHT22;32204;49.160;8.580;2022-07-23T06:52:25;26.30;1.00
46490;DHT22;32204;49.160;8.580;2022-07-23T06:54:52;27.70;99.90
46490;DHT22;32204;49.160;8.580;2022-07-23T06:57:17;27.90;99.90
46490;DHT22;32204;49.160;8.580;2022-07-23T06:59:43;27.40;99.90
46490;DHT22;32204;49.160;8.580;2022-07-23T07:02:09;27.10;99.90
46490;DHT22;32204;49.160;8.580;2022-07-23T07:04:35;27.40;99.90
46490;DHT22;32204;49.160;8.580;2022-07-23T07:07:00;28.70;1.00
46490;DHT22;32204;49.160;8.580;2022-07-23T07:09:26;27.90;99.90
46490;DHT22;32204;49.160;8.580;2022-07-23T07:11:52;27.20;99.90
46490;DHT22;32204;49.160;8.580;2022-07-23T07:14:18;27.80;99.90
46490;DHT22;32204;49.160;8.580;2022-07-23T07:16:44;29.80;99.90
46490;DHT22;32204;49.160;8.580;2022-07-23T07:19:09;31.30;99.90
46490;DHT22;32204;49.160;8.580;2022-07-23T07:21:35;31.60;1.00
46490;DHT22;32204;49.160;8.580;2022-07-23T07:24:01;30.40;96.50
46490;DHT22;32204;49.160;8.580;2022-07-23T07:26:27;29.60;99.90
46490;DHT22;32204;49.160;8.580;2022-07-23T07:28:53;29.20;99.90
46490;DHT22;32204;49.160;8.580;2022-07-23T07:31:18;28.50;99.90
46490;DHT22;32204;49.160;8.580;2022-07-23T07:33:44;28.60;99.90
46490;DHT22;32204;49.160;8.580;2022-07-23T07:36:09;28.60;1.00
46490;DHT22;32204;49.160;8.580;2022-07-23T07:38:35;28.00;99.90
46490;DHT22;32204;49.160;8.580;2022-07-23T07:41:01;27.20;1.00
46490;DHT22;32204;49.160;8.580;2022-07-23T07:43:27;26.70;33.80
46490;DHT22;32204;49.160;8.580;2022-07-23T07:45:55;26.50;1.00
46490;DHT22;32204;49.160;8.580;2022-07-23T07:48:20;26.40;56.10
46490;DHT22;32204;49.160;8.580;2022-07-23T07:50:46;26.30;99.90
46490;DHT22;32204;49.160;8.580;2022-07-23T07:53:12;26.30;99.90
46490;DHT22;32204;49.160;8.580;2022-07-23T07:55:37;26.30;99.90
46490;DHT22;32204;49.160;8.580;2022-07-23T07:58:03;26.10;99.90
46490;DHT22;32204;49.160;8.580;2022-07-23T08:00:29;26.10;99.90
46490;DHT22;32204;49.160;8.580;2022-07-23T08:02:55;26.10;99.90
46490;DHT22;32204;49.160;8.580;2022-07-23T08:05:22;26.00;1.00
46490;DHT22;32204;49.160;8.580;2022-07-23T08:07:48;25.70;1.00
46490;DHT22;32204;49.160;8.580;2022-07-23T08:10:14;25.50;1.00
46490;DHT22;32204;49.160;8.580;2022-07-23T08:12:48;25.60;1.00
46490;DHT22;32204;49.160;8.580;2022-07-23T08:15:17;25.70;1.00
46490;DHT22;32204;49.160;8.580;2022-07-23T08:17:44;26.10;1.00
46490;DHT22;32204;49.160;8.580;2022-07-23T08:20:12;26.40;1.00
46490;DHT22;32204;49.160;8.580;2022-07-23T08:22:57;26.40;99.90
46490;DHT22;32204;49.160;8.580;2022-07-23T08:25:33;27.00;1.00
46490;DHT22;32204;49.160;8.580;2022-07-23T08:28:00;27.20;99.90
46490;DHT22;32204;49.160;8.580;2022-07-23T08:30:27;27.00;99.90
46490;DHT22;32204;49.160;8.580;2022-07-23T08:33:02;26.90;99.90
46490;DHT22;32204;49.160;8.580;2022-07-23T08:35:39;27.20;99.90
46490;DHT22;32204;49.160;8.580;2022-07-23T08:38:08;27.80;99.90
46490;DHT22;32204;49.160;8.580;2022-07-23T08:40:39;27.20;99.90
46490;DHT22;32204;49.160;8.580;2022-07-23T08:43:07;27.10;99.90
46490;DHT22;32204;49.160;8.580;2022-07-23T08:45:39;27.30;99.90
46490;DHT22;32204;49.160;8.580;2022-07-23T08:48:07;27.30;99.90
46490;DHT22;32204;49.160;8.580;2022-07-23T08:50:35;27.10;99.90
46490;DHT22;32204;49.160;8.580;2022-07-23T08:53:07;27.10;99.90
46490;DHT22;32204;49.160;8.580;2022-07-23T08:55:33;27.40;99.90
46490;DHT22;32204;49.160;8.580;2022-07-23T08:58:00;27.30;99.90
46490;DHT22;32204;49.160;8.580;2022-07-23T09:00:26;26.90;16.20
46490;DHT22;32204;49.160;8.580;2022-07-23T09:02:51;26.90;99.90
46490;DHT22;32204;49.160;8.580;2022-07-23T09:05:18;27.00;99.90
46490;DHT22;32204;49.160;8.580;2022-07-23T09:08:04;27.00;99.90
46490;DHT22;32204;49.160;8.580;2022-07-23T09:13:39;27.10;99.90
46490;DHT22;32204;49.160;8.580;2022-07-23T09:16:28;27.40;99.90
46490;DHT22;32204;49.160;8.580;2022-07-23T09:19:01;27.30;99.90
46490;DHT22;32204;49.160;8.580;2022-07-23T09:21:38;27.50;99.90
46490;DHT22;32204;49.160;8.580;2022-07-23T09:24:09;27.50;27.90
46490;DHT22;32204;49.160;8.580;2022-07-23T09:29:17;27.60;85.30
46490;DHT22;32204;49.160;8.580;2022-07-23T09:34:23;27.50;2.80
46490;DHT22;32204;49.160;8.580;2022-07-23T09:36:50;27.20;1.00
46490;DHT22;32204;49.160;8.580;2022-07-23T09:39:25;27.10;1.00
46490;DHT22;32204;49.160;8.580;2022-07-23T09:41:51;27.00;1.00
46490;DHT22;32204;49.160;8.580;2022-07-23T09:44:19;27.10;1.00
46490;DHT22;32204;49.160;8.580;2022-07-23T09:46:47;27.10;1.00
46490;DHT22;32204;49.160;8.580;2022-07-23T09:49:21;27.30;45.30
46490;DHT22;32204;49.160;8.580;2022-07-23T09:51:58;27.30;14.80
46490;DHT22;32204;49.160;8.580;2022-07-23T09:56:55;27.20;86.10
46490;DHT22;32204;49.160;8.580;2022-07-23T09:59:26;27.30;28.70
46490;DHT22;32204;49.160;8.580;2022-07-23T10:01:56;27.40;18.70
46490;DHT22;32204;49.160;8.580;2022-07-23T10:04:23;27.60;1.00
46490;DHT22;32204;49.160;8.580;2022-07-23T10:06:52;27.50;1.00
46490;DHT22;32204;49.160;8.580;2022-07-23T10:09:23;27.40;1.00
46490;DHT22;32204;49.160;8.580;2022-07-23T10:11:50;27.60;1.00
46490;DHT22;32204;49.160;8.580;2022-07-23T10:14:17;27.70;1.00
46490;DHT22;32204;49.160;8.580;2022-07-23T10:16:44;27.90;99.90
46490;DHT22;32204;49.160;8.580;2022-07-23T10:19:09;27.90;99.90
46490;DHT22;32204;49.160;8.580;2022-07-23T10:21:45;27.90;1.00
46490;DHT22;32204;49.160;8.580;2022-07-23T10:24:30;27.80;99.90
46490;DHT22;32204;49.160;8.580;2022-07-23T10:28:06;27.90;99.90
46490;DHT22;32204;49.160;8.580;2022-07-23T10:30:03;28.00;99.90
46490;DHT22;32204;49.160;8.580;2022-07-23T10:35:56;28.10;50.40
46490;DHT22;32204;49.160;8.580;2022-07-23T10:41:01;28.70;1.00
46490;DHT22;32204;49.160;8.580;2022-07-23T10:43:28;28.90;1.00
46490;DHT22;32204;49.160;8.580;2022-07-23T10:45:55;28.80;99.90
46490;DHT22;32204;49.160;8.580;2022-07-23T10:48:26;28.90;1.00
46490;DHT22;32204;49.160;8.580;2022-07-23T10:51:14;28.90;1.00
46490;DHT22;32204;49.160;8.580;2022-07-23T10:56:48;29.20;1.00
46490;DHT22;32204;49.160;8.580;2022-07-23T10:59:03;29.20;1.00
46490;DHT22;32204;49.160;8.580;2022-07-23T11:01:38;29.40;1.00
46490;DHT22;32204;49.160;8.580;2022-07-23T11:04:11;29.30;1.00
46490;DHT22;32204;49.160;8.580;2022-07-23T11:17:23;29.00;99.90
46490;DHT22;32204;49.160;8.580;2022-07-23T11:22:50;28.90;1.00
46490;DHT22;32204;49.160;8.580;2022-07-23T11:27:54;28.80;21.80
46490;DHT22;32204;49.160;8.580;2022-07-23T11:32:53;29.10;1.00
46490;DHT22;32204;49.160;8.580;2022-07-23T11:35:21;29.30;1.00
46490;DHT22;32204;49.160;8.580;2022-07-23T11:37:48;29.30;1.00
46490;DHT22;32204;49.160;8.580;2022-07-23T11:40:16;29.20;99.90
46490;DHT22;32204;49.160;8.580;2022-07-23T11:45:18;29.60;1.00
46490;DHT22;32204;49.160;8.580;2022-07-23T11:47:44;29.70;99.90
46490;DHT22;32204;49.160;8.580;2022-07-23T11:50:09;29.40;70.40
46490;DHT22;32204;49.160;8.580;2022-07-23T11:52:35;29.40;1.00
46490;DHT22;32204;49.160;8.580;2022-07-23T11:55:07;29.60;23.60
46490;DHT22;32204;49.160;8.580;2022-07-23T11:57:39;29.70;72.70
46490;DHT22;32204;49.160;8.580;2022-07-23T12:02:35;30.00;1.00
46490;DHT22;32204;49.160;8.580;2022-07-23T12:05:00;29.80;1.00
46490;DHT22;32204;49.160;8.580;2022-07-23T12:07:36;29.80;1.00
46490;DHT22;32204;49.160;8.580;2022-07-23T12:10:15;29.90;1.00
46490;DHT22;32204;49.160;8.580;2022-07-23T12:12:47;30.10;1.00
46490;DHT22;32204;49.160;8.580;2022-07-23T12:15:16;30.40;1.00
46490;DHT22;32204;49.160;8.580;2022-07-23T12:17:44;30.70;1.00
46490;DHT22;32204;49.160;8.580;2022-07-23T12:20:14;30.70;99.90
46490;DHT22;32204;49.160;8.580;2022-07-23T12:22:43;30.30;99.90
46490;DHT22;32204;49.160;8.580;2022-07-23T12:25:20;30.00;99.90
46490;DHT22;32204;49.160;8.580;2022-07-23T12:27:58;30.00;99.90
46490;DHT22;32204;49.160;8.580;2022-07-23T12:30:28;30.30;99.90
46490;DHT22;32204;49.160;8.580;2022-07-23T12:32:56;30.20;99.90
46490;DHT22;32204;49.160;8.580;2022-07-23T12:35:22;30.10;99.90
46490;DHT22;32204;49.160;8.580;2022-07-23T12:37:50;30.10;99.90
46490;DHT22;32204;49.160;8.580;2022-07-23T12:41:14;30.20;99.90
46490;DHT22;32204;49.160;8.580;2022-07-23T12:48:30;30.20;99.90
46490;DHT22;32204;49.160;8.580;2022-07-23T12:51:00;30.30;99.90
46490;DHT22;32204;49.160;8.580;2022-07-23T12:58:24;30.00;99.90
46490;DHT22;32204;49.160;8.580;2022-07-23T13:01:04;30.10;99.90
46490;DHT22;32204;49.160;8.580;2022-07-23T13:03:41;30.50;99.90
46490;DHT22;32204;49.160;8.580;2022-07-23T13:06:10;30.90;99.90
46490;DHT22;32204;49.160;8.580;2022-07-23T13:08:38;30.70;83.30
46490;DHT22;32204;49.160;8.580;2022-07-23T13:11:06;30.40;43.80
46490;DHT22;32204;49.160;8.580;2022-07-23T13:13:34;30.40;1.00
46490;DHT22;32204;49.160;8.580;2022-07-23T13:16:01;30.40;1.00
46490;DHT22;32204;49.160;8.580;2022-07-23T13:18:28;30.50;1.00
46490;DHT22;32204;49.160;8.580;2022-07-23T13:20:54;30.80;1.00
46490;DHT22;32204;49.160;8.580;2022-07-23T13:23:20;31.20;1.00
46490;DHT22;32204;49.160;8.580;2022-07-23T13:25:47;31.10;1.00
46490;DHT22;32204;49.160;8.580;2022-07-23T13:28:13;30.90;1.00
46490;DHT22;32204;49.160;8.580;2022-07-23T13:30:40;31.00;1.00
46490;DHT22;32204;49.160;8.580;2022-07-23T13:33:06;31.20;1.00
46490;DHT22;32204;49.160;8.580;2022-07-23T13:35:34;31.40;1.00
46490;DHT22;32204;49.160;8.580;2022-07-23T13:38:00;31.30;1.00
46490;DHT22;32204;49.160;8.580;2022-07-23T13:40:26;31.30;1.00
46490;DHT22;32204;49.160;8.580;2022-07-23T13:42:51;31.10;1.00
46490;DHT22;32204;49.160;8.580;2022-07-23T13:45:17;31.00;1.00
46490;DHT22;32204;49.160;8.580;2022-07-23T13:47:43;31.10;1.00
46490;DHT22;32204;49.160;8.580;2022-07-23T13:50:08;31.10;1.00
46490;DHT22;32204;49.160;8.580;2022-07-23T13:52:34;31.00;1.00
46490;DHT22;32204;49.160;8.580;2022-07-23T13:55:02;31.10;99.90
46490;DHT22;32204;49.160;8.580;2022-07-23T13:57:29;31.30;99.90
46490;DHT22;32204;49.160;8.580;2022-07-23T13:59:55;31.50;99.90
46490;DHT22;32204;49.160;8.580;2022-07-23T14:02:21;31.40;99.90
46490;DHT22;32204;49.160;8.580;2022-07-23T14:04:47;31.50;99.90
46490;DHT22;32204;49.160;8.580;2022-07-23T14:07:13;31.00;99.90
46490;DHT22;32204;49.160;8.580;2022-07-23T14:09:39;30.40;99.90
46490;DHT22;32204;49.160;8.580;2022-07-23T14:12:05;30.40;99.90
46490;DHT22;32204;49.160;8.580;2022-07-23T14:14:31;30.30;99.90
46490;DHT22;32204;49.160;8.580;2022-07-23T14:16:56;30.10;99.90
46490;DHT22;32204;49.160;8.580;2022-07-23T14:19:22;30.50;1.00
46490;DHT22;32204;49.160;8.580;2022-07-23T14:21:48;30.40;1.00
46490;DHT22;32204;49.160;8.580;2022-07-23T14:24:15;30.70;1.00
46490;DHT22;32204;49.160;8.580;2022-07-23T14:26:40;31.00;1.00
46490;DHT22;32204;49.160;8.580;2022-07-23T14:29:06;30.80;1.00
46490;DHT22;32204;49.160;8.580;2022-07-23T14:31:32;30.90;1.00
46490;DHT22;32204;49.160;8.580;2022-07-23T14:33:58;30.90;1.00
46490;DHT22;32204;49.160;8.580;2022-07-23T14:36:24;31.00;1.00
46490;DHT22;32204;49.160;8.580;2022-07-23T14:38:50;31.00;1.00
46490;DHT22;32204;49.160;8.580;2022-07-23T14:41:16;30.90;99.90
46490;DHT22;32204;49.160;8.580;2022-07-23T14:43:42;31.00;99.90
46490;DHT22;32204;49.160;8.580;2022-07-23T14:46:08;31.30;99.90
46490;DHT22;32204;49.160;8.580;2022-07-23T14:48:34;30.90;99.90
46490;DHT22;32204;49.160;8.580;2022-07-23T14:50:59;31.20;99.90
46490;DHT22;32204;49.160;8.580;2022-07-23T14:53:25;31.40;1.00
46490;DHT22;32204;49.160;8.580;2022-07-23T14:55:51;31.00;99.90
46490;DHT22;32204;49.160;8.580;2022-07-23T14:58:16;31.10;1.00
46490;DHT22;32204;49.160;8.580;2022-07-23T15:00:43;31.50;1.00
46490;DHT22;32204;49.160;8.580;2022-07-23T15:03:08;31.50;1.00
46490;DHT22;32204;49.160;8.580;2022-07-23T15:05:34;31.10;1.00
46490;DHT22;32204;49.160;8.580;2022-07-23T15:08:00;30.60;1.00
46490;DHT22;32204;49.160;8.580;2022-07-23T15:10:26;30.40;1.00
46490;DHT22;32204;49.160;8.580;2022-07-23T15:12:51;30.10;1.00
46490;DHT22;32204;49.160;8.580;2022-07-23T15:15:17;30.20;1.00
46490;DHT22;32204;49.160;8.580;2022-07-23T15:17:43;30.30;1.00
46490;DHT22;32204;49.160;8.580;2022-07-23T15:20:10;30.30;1.00
46490;DHT22;32204;49.160;8.580;2022-07-23T15:22:39;30.30;1.00
46490;DHT22;32204;49.160;8.580;2022-07-23T15:25:05;30.40;10.50
46490;DHT22;32204;49.160;8.580;2022-07-23T15:27:31;30.10;1.00
46490;DHT22;32204;49.160;8.580;2022-07-23T15:29:57;29.80;54.50
46490;DHT22;32204;49.160;8.580;2022-07-23T15:32:23;30.30;99.90
46490;DHT22;32204;49.160;8.580;2022-07-23T15:34:52;30.50;99.90
46490;DHT22;32204;49.160;8.580;2022-07-23T15:37:18;30.80;99.90
46490;DHT22;32204;49.160;8.580;2022-07-23T15:39:43;30.90;81.40
46490;DHT22;32204;49.160;8.580;2022-07-23T15:42:09;30.90;46.70
46490;DHT22;32204;49.160;8.580;2022-07-23T15:44:35;31.30;4.90
46490;DHT22;32204;49.160;8.580;2022-07-23T15:47:01;31.40;1.00
46490;DHT22;32204;49.160;8.580;2022-07-23T15:49:27;31.00;1.00
46490;DHT22;32204;49.160;8.580;2022-07-23T15:51:53;30.80;1.00
46490;DHT22;32204;49.160;8.580;2022-07-23T15:54:20;30.70;1.00
46490;DHT22;32204;49.160;8.580;2022-07-23T15:56:46;30.80;1.00
46490;DHT22;32204;49.160;8.580;2022-07-23T15:59:12;31.00;1.00
46490;DHT22;32204;49.160;8.580;2022-07-23T16:01:38;31.10;1.00
46490;DHT22;32204;49.160;8.580;2022-07-23T16:04:03;31.50;1.00
46490;DHT22;32204;49.160;8.580;2022-07-23T16:06:32;31.40;99.90
46490;DHT22;32204;49.160;8.580;2022-07-23T16:08:58;31.30;99.90
46490;DHT22;32204;49.160;8.580;2022-07-23T16:11:25;31.50;99.90
46490;DHT22;32204;49.160;8.580;2022-07-23T16:13:51;31.80;99.90
46490;DHT22;32204;49.160;8.580;2022-07-23T16:16:17;31.70;99.90
46490;DHT22;32204;49.160;8.580;2022-07-23T16:18:42;31.40;99.90
46490;DHT22;32204;49.160;8.580;2022-07-23T16:21:08;31.60;99.90
46490;DHT22;32204;49.160;8.580;2022-07-23T16:23:34;32.00;99.90
46490;DHT22;32204;49.160;8.580;2022-07-23T16:26:00;32.30;99.90
46490;DHT22;32204;49.160;8.580;2022-07-23T16:28:25;32.40;99.90
46490;DHT22;32204;49.160;8.580;2022-07-23T16:30:51;32.00;99.90
46490;DHT22;32204;49.160;8.580;2022-07-23T16:33:17;32.00;99.90